createdAt,value
2018-01-07T00:00:21.037Z,0
2018-01-07T00:01:42.914Z,0
2018-01-07T00:03:05.122Z,0
2018-01-07T00:04:27.006Z,0
2018-01-07T00:05:49.121Z,0
2018-01-07T00:07:11.263Z,0
2018-01-07T00:08:32.951Z,0
2018-01-07T00:09:54.305Z,0
2018-01-07T00:11:16.341Z,0
2018-01-07T00:12:38.229Z,0
2018-01-07T00:13:59.854Z,0
2018-01-07T00:15:21.461Z,0
2018-01-07T00:16:43.091Z,0
2018-01-07T00:18:05.224Z,0
2018-01-07T00:19:26.934Z,0
2018-01-07T00:20:48.660Z,0
2018-01-07T00:22:10.964Z,0
2018-01-07T00:23:33.074Z,0
2018-01-07T00:24:54.936Z,0
2018-01-07T00:26:17.162Z,0
2018-01-07T00:27:38.773Z,0
2018-01-07T00:29:01.002Z,0
2018-01-07T00:30:22.613Z,0
2018-01-07T00:31:44.232Z,0
2018-01-07T00:33:05.960Z,0
2018-01-07T00:34:28.231Z,0
2018-01-07T00:35:50.100Z,0
2018-01-07T00:37:12.349Z,0
2018-01-07T00:38:35.103Z,0
2018-01-07T00:39:57.055Z,0
2018-01-07T00:41:19.167Z,0
2018-01-07T00:42:40.810Z,0
2018-01-07T00:44:02.410Z,0
2018-01-07T00:45:24.735Z,0
2018-01-07T00:46:46.942Z,0
2018-01-07T00:48:09.054Z,0
2018-01-07T00:49:30.396Z,0
2018-01-07T00:50:52.020Z,0
2018-01-07T00:52:14.133Z,0
2018-01-07T00:53:35.803Z,0
2018-01-07T00:54:57.921Z,0
2018-01-07T00:56:19.807Z,0
2018-01-07T00:57:41.442Z,0
2018-01-07T00:59:03.183Z,0
2018-01-07T01:00:24.803Z,0
2018-01-07T01:01:46.152Z,0
2018-01-07T01:03:08.073Z,0
2018-01-07T01:04:30.252Z,0
2018-01-07T01:05:52.179Z,0
2018-01-07T01:07:13.594Z,0
2018-01-07T01:08:35.449Z,0
2018-01-07T01:09:57.053Z,0
2018-01-07T01:11:19.316Z,0
2018-01-07T01:12:41.303Z,0
2018-01-07T01:14:03.178Z,0
2018-01-07T01:15:24.987Z,0
2018-01-07T01:16:46.879Z,0
2018-01-07T01:18:09.187Z,0
2018-01-07T01:19:30.783Z,0
2018-01-07T01:20:52.653Z,0
2018-01-07T01:22:15.064Z,0
2018-01-07T01:23:36.983Z,0
2018-01-07T01:24:59.282Z,0
2018-01-07T01:26:21.321Z,0
2018-01-07T01:27:42.975Z,0
2018-01-07T01:29:05.115Z,0
2018-01-07T01:30:27.342Z,0
2018-01-07T01:31:48.695Z,0
2018-01-07T01:33:10.184Z,0
2018-01-07T01:34:32.476Z,0
2018-01-07T01:35:54.623Z,0
2018-01-07T01:37:16.220Z,0
2018-01-07T01:38:38.184Z,0
2018-01-07T01:40:00.145Z,0
2018-01-07T01:41:22.166Z,0
2018-01-07T01:42:44.119Z,0
2018-01-07T01:44:05.714Z,0
2018-01-07T01:45:27.596Z,0
2018-01-07T01:46:49.196Z,0
2018-01-07T01:48:11.057Z,0
2018-01-07T01:49:32.743Z,0
2018-01-07T01:50:54.598Z,0
2018-01-07T01:52:16.449Z,0
2018-01-07T01:53:38.594Z,0
2018-01-07T01:55:00.713Z,0
2018-01-07T01:56:22.684Z,0
2018-01-07T01:57:44.036Z,0
2018-01-07T01:59:05.894Z,0
2018-01-07T02:00:27.534Z,0
2018-01-07T02:01:49.411Z,0
2018-01-07T02:03:11.013Z,0
2018-01-07T02:04:32.904Z,0
2018-01-07T02:05:54.780Z,0
2018-01-07T02:07:17.154Z,0
2018-01-07T02:08:39.296Z,0
2018-01-07T02:10:01.188Z,0
2018-01-07T02:11:23.056Z,0
2018-01-07T02:12:45.184Z,0
2018-01-07T02:14:06.755Z,0
2018-01-07T02:15:28.384Z,0
2018-01-07T02:16:50.577Z,0
2018-01-07T02:18:12.705Z,0
2018-01-07T02:19:34.964Z,0
2018-01-07T02:20:57.084Z,0
2018-01-07T02:22:18.757Z,0
2018-01-07T02:23:40.923Z,0
2018-01-07T02:25:03.137Z,0
2018-01-07T02:26:25.254Z,0
2018-01-07T02:27:46.586Z,0
2018-01-07T02:29:08.761Z,0
2018-01-07T02:30:30.088Z,0
2018-01-07T02:31:52.300Z,0
2018-01-07T02:33:13.902Z,0
2018-01-07T02:34:35.813Z,0
2018-01-07T02:35:57.679Z,0
2018-01-07T02:37:19.968Z,0
2018-01-07T02:38:41.686Z,0
2018-01-07T02:40:03.124Z,0
2018-01-07T02:41:24.979Z,0
2018-01-07T02:42:47.113Z,0
2018-01-07T02:44:08.701Z,0
2018-01-07T02:45:30.386Z,0
2018-01-07T02:46:52.245Z,0
2018-01-07T02:48:14.171Z,0
2018-01-07T02:49:35.515Z,0
2018-01-07T02:50:57.391Z,0
2018-01-07T02:52:19.372Z,0
2018-01-07T02:53:41.312Z,0
2018-01-07T02:55:02.387Z,0
2018-01-07T02:56:23.991Z,0
2018-01-07T02:57:45.839Z,0
2018-01-07T02:59:07.955Z,0
2018-01-07T03:00:29.713Z,0
2018-01-07T03:01:51.315Z,0
2018-01-07T03:03:12.907Z,0
2018-01-07T03:04:35.113Z,0
2018-01-07T03:05:57.054Z,0
2018-01-07T03:07:18.970Z,0
2018-01-07T03:08:40.863Z,0
2018-01-07T03:10:03.036Z,0
2018-01-07T03:11:24.377Z,0
2018-01-07T03:12:46.241Z,0
2018-01-07T03:14:08.215Z,0
2018-01-07T03:15:30.486Z,0
2018-01-07T03:16:52.374Z,0
2018-01-07T03:18:13.824Z,0
2018-01-07T03:19:35.924Z,0
2018-01-07T03:20:57.514Z,0
2018-01-07T03:22:19.376Z,0
2018-01-07T03:23:41.218Z,0
2018-01-07T03:25:03.424Z,0
2018-01-07T03:26:25.303Z,0
2018-01-07T03:27:46.927Z,0
2018-01-07T03:29:08.894Z,0
2018-01-07T03:30:31.239Z,0
2018-01-07T03:31:53.104Z,0
2018-01-07T03:33:15.238Z,0
2018-01-07T03:34:36.828Z,0
2018-01-07T03:35:58.426Z,0
2018-01-07T03:37:20.685Z,0
2018-01-07T03:38:42.594Z,0
2018-01-07T03:40:04.592Z,0
2018-01-07T03:41:26.691Z,0
2018-01-07T03:42:48.285Z,0
2018-01-07T03:44:10.173Z,0
2018-01-07T03:45:32.150Z,0
2018-01-07T03:46:54.133Z,0
2018-01-07T03:48:16.127Z,0
2018-01-07T03:49:38.016Z,0
2018-01-07T03:50:59.873Z,0
2018-01-07T03:52:21.767Z,0
2018-01-07T03:53:43.411Z,0
2018-01-07T03:55:05.129Z,0
2018-01-07T03:56:27.350Z,0
2018-01-07T03:57:49.459Z,0
2018-01-07T03:59:11.543Z,0
2018-01-07T04:00:33.687Z,0
2018-01-07T04:01:55.569Z,0
2018-01-07T04:03:17.260Z,0
2018-01-07T04:04:38.865Z,0
2018-01-07T04:06:01.213Z,0
2018-01-07T04:07:22.545Z,0
2018-01-07T04:08:44.399Z,0
2018-01-07T04:10:05.973Z,0
2018-01-07T04:11:27.825Z,0
2018-01-07T04:12:49.739Z,0
2018-01-07T04:14:11.584Z,0
2018-01-07T04:15:33.517Z,0
2018-01-07T04:16:55.625Z,0
2018-01-07T04:18:17.542Z,0
2018-01-07T04:19:39.274Z,0
2018-01-07T04:21:00.888Z,0
2018-01-07T04:22:22.546Z,0
2018-01-07T04:23:44.403Z,0
2018-01-07T04:25:06.317Z,0
2018-01-07T04:26:28.463Z,0
2018-01-07T04:27:50.044Z,0
2018-01-07T04:29:11.362Z,0
2018-01-07T04:30:32.723Z,0
2018-01-07T04:31:54.652Z,0
2018-01-07T04:33:16.269Z,0
2018-01-07T04:34:37.827Z,0
2018-01-07T04:35:59.667Z,0
2018-01-07T04:37:21.263Z,0
2018-01-07T04:38:43.144Z,0
2018-01-07T04:40:04.993Z,0
2018-01-07T04:41:26.946Z,0
2018-01-07T04:42:48.889Z,0
2018-01-07T04:44:10.852Z,0
2018-01-07T04:45:32.785Z,0
2018-01-07T04:46:54.770Z,0
2018-01-07T04:48:16.402Z,0
2018-01-07T04:49:38.404Z,0
2018-01-07T04:51:00.287Z,0
2018-01-07T04:52:22.387Z,0
2018-01-07T04:53:43.963Z,0
2018-01-07T04:55:06.146Z,0
2018-01-07T04:56:27.798Z,0
2018-01-07T04:57:49.635Z,0
2018-01-07T04:59:11.764Z,0
2018-01-07T05:00:33.362Z,0
2018-01-07T05:01:54.793Z,0
2018-01-07T05:03:16.634Z,0
2018-01-07T05:04:38.221Z,0
2018-01-07T05:05:59.852Z,0
2018-01-07T05:07:21.190Z,0
2018-01-07T05:08:43.403Z,0
2018-01-07T05:10:05.267Z,0
2018-01-07T05:11:26.414Z,0
2018-01-07T05:12:48.244Z,0
2018-01-07T05:14:10.461Z,0
2018-01-07T05:15:32.113Z,0
2018-01-07T05:16:54.252Z,0
2018-01-07T05:18:15.844Z,0
2018-01-07T05:19:37.708Z,0
2018-01-07T05:20:59.373Z,0
2018-01-07T05:22:21.252Z,0
2018-01-07T05:23:43.495Z,0
2018-01-07T05:25:05.389Z,0
2018-01-07T05:26:27.019Z,0
2018-01-07T05:27:48.901Z,0
2018-01-07T05:29:10.991Z,0
2018-01-07T05:30:32.312Z,0
2018-01-07T05:31:54.213Z,0
2018-01-07T05:33:16.060Z,0
2018-01-07T05:34:37.933Z,0
2018-01-07T05:36:00.291Z,0
2018-01-07T05:37:22.141Z,0
2018-01-07T05:38:43.992Z,0
2018-01-07T05:40:05.628Z,0
2018-01-07T05:41:27.820Z,0
2018-01-07T05:42:49.289Z,0
2018-01-07T05:44:11.131Z,0
2018-01-07T05:45:32.484Z,0
2018-01-07T05:46:54.135Z,0
2018-01-07T05:48:16.262Z,0
2018-01-07T05:49:37.901Z,0
2018-01-07T05:50:59.477Z,0
2018-01-07T05:52:21.113Z,0
2018-01-07T05:53:43.503Z,0
2018-01-07T05:55:05.705Z,0
2018-01-07T05:56:26.954Z,0
2018-01-07T05:57:48.661Z,0
2018-01-07T05:59:10.783Z,0
2018-01-07T06:00:32.396Z,0
2018-01-07T06:01:54.276Z,0
2018-01-07T06:03:16.174Z,0
2018-01-07T06:04:38.236Z,0
2018-01-07T06:06:00.357Z,0
2018-01-07T06:07:22.224Z,0
2018-01-07T06:08:43.560Z,0
2018-01-07T06:10:04.897Z,0
2018-01-07T06:11:27.183Z,0
2018-01-07T06:12:48.783Z,0
2018-01-07T06:14:10.673Z,0
2018-01-07T06:15:32.793Z,0
2018-01-07T06:16:55.059Z,0
2018-01-07T06:18:16.909Z,0
2018-01-07T06:19:38.704Z,0
2018-01-07T06:21:00.057Z,0
2018-01-07T06:22:21.663Z,0
2018-01-07T06:23:43.557Z,0
2018-01-07T06:25:04.904Z,0
2018-01-07T06:26:26.497Z,0
2018-01-07T06:27:48.623Z,0
2018-01-07T06:29:10.478Z,0
2018-01-07T06:30:32.791Z,0
2018-01-07T06:31:54.663Z,0
2018-01-07T06:33:16.243Z,0
2018-01-07T06:34:38.484Z,0
2018-01-07T06:36:00.113Z,0
2018-01-07T06:37:22.255Z,0
2018-01-07T06:38:44.382Z,0
2018-01-07T06:40:06.027Z,0
2018-01-07T06:41:27.634Z,0
2018-01-07T06:42:49.103Z,0
2018-01-07T06:44:10.709Z,0
2018-01-07T06:45:32.317Z,0
2018-01-07T06:46:53.653Z,0
2018-01-07T06:48:15.625Z,0
2018-01-07T06:49:37.233Z,0
2018-01-07T06:50:58.841Z,0
2018-01-07T06:52:21.040Z,0
2018-01-07T06:53:42.204Z,0
2018-01-07T06:55:03.806Z,0
2018-01-07T06:56:25.782Z,0
2018-01-07T06:57:47.368Z,4
2018-01-07T06:59:08.814Z,4
2018-01-07T07:00:29.965Z,0
2018-01-07T07:01:51.695Z,4
2018-01-07T07:03:13.537Z,8
2018-01-07T07:04:35.401Z,8
2018-01-07T07:05:57.771Z,8
2018-01-07T07:07:18.852Z,8
2018-01-07T07:08:40.610Z,8
2018-01-07T07:10:02.230Z,12
2018-01-07T07:11:24.096Z,16
2018-01-07T07:12:46.293Z,20
2018-01-07T07:14:08.072Z,20
2018-01-07T07:15:29.695Z,28
2018-01-07T07:16:51.294Z,32
2018-01-07T07:18:13.424Z,36
2018-01-07T07:19:35.616Z,44
2018-01-07T07:20:57.473Z,52
2018-01-07T07:22:19.582Z,60
2018-01-07T07:23:41.733Z,68
2018-01-07T07:25:03.945Z,80
2018-01-07T07:26:25.703Z,88
2018-01-07T07:27:47.563Z,104
2018-01-07T07:29:09.293Z,116
2018-01-07T07:30:31.203Z,132
2018-01-07T07:31:52.784Z,148
2018-01-07T07:33:14.628Z,164
2018-01-07T07:34:36.348Z,184
2018-01-07T07:35:57.702Z,208
2018-01-07T07:37:19.621Z,228
2018-01-07T07:38:41.212Z,252
2018-01-07T07:40:02.594Z,276
2018-01-07T07:41:24.522Z,300
2018-01-07T07:42:46.522Z,328
2018-01-07T07:44:08.424Z,356
2018-01-07T07:45:30.516Z,380
2018-01-07T07:46:52.490Z,404
2018-01-07T07:48:14.607Z,432
2018-01-07T07:49:36.186Z,464
2018-01-07T07:50:58.335Z,492
2018-01-07T07:52:20.456Z,524
2018-01-07T07:53:42.085Z,560
2018-01-07T07:55:04.230Z,592
2018-01-07T07:56:26.162Z,632
2018-01-07T07:57:48.295Z,676
2018-01-07T07:59:10.455Z,724
2018-01-07T08:00:32.612Z,772
2018-01-07T08:01:54.500Z,816
2018-01-07T08:03:16.388Z,856
2018-01-07T08:04:38.535Z,884
2018-01-07T08:06:00.304Z,924
2018-01-07T08:07:22.367Z,960
2018-01-07T08:08:44.608Z,992
2018-01-07T08:10:06.734Z,1024
2018-01-07T08:11:28.980Z,1048
2018-01-07T08:12:50.848Z,1072
2018-01-07T08:14:12.956Z,1096
2018-01-07T08:15:34.875Z,1124
2018-01-07T08:16:56.468Z,1152
2018-01-07T08:18:18.588Z,1180
2018-01-07T08:19:40.442Z,1208
2018-01-07T08:21:02.577Z,1240
2018-01-07T08:22:24.762Z,1280
2018-01-07T08:23:46.918Z,1308
2018-01-07T08:25:08.899Z,1344
2018-01-07T08:26:30.771Z,1372
2018-01-07T08:27:52.046Z,1412
2018-01-07T08:29:13.902Z,1452
2018-01-07T08:30:36.365Z,1492
2018-01-07T08:31:58.496Z,1540
2018-01-07T08:33:20.613Z,1592
2018-01-07T08:34:42.474Z,1652
2018-01-07T08:36:04.074Z,1708
2018-01-07T08:37:26.000Z,1740
2018-01-07T08:38:47.870Z,1776
2018-01-07T08:40:09.736Z,1808
2018-01-07T08:41:31.588Z,1832
2018-01-07T08:42:53.712Z,1864
2018-01-07T08:44:15.985Z,1892
2018-01-07T08:45:38.134Z,1924
2018-01-07T08:47:00.256Z,1956
2018-01-07T08:48:22.113Z,1996
2018-01-07T08:49:43.974Z,2036
2018-01-07T08:51:05.837Z,2068
2018-01-07T08:52:27.986Z,2100
2018-01-07T08:53:49.855Z,2144
2018-01-07T08:55:12.345Z,2192
2018-01-07T08:56:34.483Z,2236
2018-01-07T08:57:56.164Z,2284
2018-01-07T08:59:18.438Z,2324
2018-01-07T09:00:40.052Z,2352
2018-01-07T09:02:01.975Z,2376
2018-01-07T09:03:23.950Z,2416
2018-01-07T09:04:45.889Z,2488
2018-01-07T09:06:08.008Z,2560
2018-01-07T09:07:29.680Z,2624
2018-01-07T09:08:51.840Z,2652
2018-01-07T09:10:14.002Z,2680
2018-01-07T09:11:35.882Z,2704
2018-01-07T09:12:57.745Z,2728
2018-01-07T09:14:19.416Z,2744
2018-01-07T09:15:41.065Z,2756
2018-01-07T09:17:02.673Z,2760
2018-01-07T09:18:24.290Z,2768
2018-01-07T09:19:46.221Z,2776
2018-01-07T09:21:08.425Z,2784
2018-01-07T09:22:30.540Z,2788
2018-01-07T09:23:52.669Z,2796
2018-01-07T09:25:14.556Z,2808
2018-01-07T09:26:36.808Z,2820
2018-01-07T09:27:58.676Z,2828
2018-01-07T09:29:20.746Z,2848
2018-01-07T09:30:42.596Z,2856
2018-01-07T09:32:04.239Z,2876
2018-01-07T09:33:26.183Z,2892
2018-01-07T09:34:47.546Z,2904
2018-01-07T09:36:09.787Z,2920
2018-01-07T09:37:31.990Z,2936
2018-01-07T09:38:54.153Z,2952
2018-01-07T09:40:16.300Z,2968
2018-01-07T09:41:38.433Z,2980
2018-01-07T09:43:00.327Z,2996
2018-01-07T09:44:22.496Z,3008
2018-01-07T09:45:44.653Z,3020
2018-01-07T09:47:06.534Z,3028
2018-01-07T09:48:28.443Z,3040
2018-01-07T09:49:50.616Z,3044
2018-01-07T09:51:12.744Z,3052
2018-01-07T09:52:34.362Z,3064
2018-01-07T09:53:56.493Z,3068
2018-01-07T09:55:18.653Z,3072
2018-01-07T09:56:40.889Z,3084
2018-01-07T09:58:03.043Z,3088
2018-01-07T09:59:25.622Z,3100
2018-01-07T10:00:47.276Z,3104
2018-01-07T10:02:09.290Z,3108
2018-01-07T10:03:31.332Z,3116
2018-01-07T10:04:53.482Z,3124
2018-01-07T10:06:15.363Z,3136
2018-01-07T10:07:37.497Z,3144
2018-01-07T10:08:59.647Z,3148
2018-01-07T10:10:21.785Z,3160
2018-01-07T10:11:43.670Z,3172
2018-01-07T10:13:05.536Z,3176
2018-01-07T10:14:27.756Z,3184
2018-01-07T10:15:49.693Z,3192
2018-01-07T10:17:11.734Z,3204
2018-01-07T10:18:33.842Z,3208
2018-01-07T10:19:55.414Z,3208
2018-01-07T10:21:17.084Z,3220
2018-01-07T10:22:39.213Z,3232
2018-01-07T10:24:00.831Z,3232
2018-01-07T10:25:22.712Z,3240
2018-01-07T10:26:44.575Z,3248
2018-01-07T10:28:06.625Z,3256
2018-01-07T10:29:28.254Z,3260
2018-01-07T10:30:50.149Z,3268
2018-01-07T10:32:12.297Z,3276
2018-01-07T10:33:34.173Z,3276
2018-01-07T10:34:55.783Z,3284
2018-01-07T10:36:17.652Z,3284
2018-01-07T10:37:39.562Z,3292
2018-01-07T10:39:01.723Z,3296
2018-01-07T10:40:23.352Z,3304
2018-01-07T10:41:45.125Z,3304
2018-01-07T10:43:07.262Z,3312
2018-01-07T10:44:29.187Z,3316
2018-01-07T10:45:51.473Z,3320
2018-01-07T10:47:13.602Z,3324
2018-01-07T10:48:35.722Z,3328
2018-01-07T10:49:57.814Z,3332
2018-01-07T10:51:19.754Z,3340
2018-01-07T10:52:41.974Z,3336
2018-01-07T10:54:04.122Z,3340
2018-01-07T10:55:26.002Z,3344
2018-01-07T10:56:47.615Z,3348
2018-01-07T10:58:09.265Z,3344
2018-01-07T10:59:31.409Z,3352
2018-01-07T11:00:53.278Z,3380
2018-01-07T11:02:15.537Z,3352
2018-01-07T11:03:37.748Z,3356
2018-01-07T11:04:59.655Z,3356
2018-01-07T11:06:21.892Z,3360
2018-01-07T11:07:43.771Z,3360
2018-01-07T11:09:05.665Z,3360
2018-01-07T11:10:27.506Z,3360
2018-01-07T11:11:50.003Z,3364
2018-01-07T11:13:12.125Z,3364
2018-01-07T11:14:34.290Z,3360
2018-01-07T11:15:56.074Z,3360
2018-01-07T11:17:18.274Z,3364
2018-01-07T11:18:40.442Z,3364
2018-01-07T11:20:02.586Z,3360
2018-01-07T11:21:24.719Z,3360
2018-01-07T11:22:46.622Z,3364
2018-01-07T11:24:08.443Z,3364
2018-01-07T11:25:30.408Z,3360
2018-01-07T11:26:52.033Z,3364
2018-01-07T11:28:13.631Z,3364
2018-01-07T11:29:35.793Z,3364
2018-01-07T11:30:57.676Z,3364
2018-01-07T11:32:19.116Z,3368
2018-01-07T11:33:41.038Z,3368
2018-01-07T11:35:02.680Z,3372
2018-01-07T11:36:24.465Z,3364
2018-01-07T11:37:46.604Z,3368
2018-01-07T11:39:08.547Z,3368
2018-01-07T11:40:30.689Z,3372
2018-01-07T11:41:52.853Z,3376
2018-01-07T11:43:14.852Z,3372
2018-01-07T11:44:36.782Z,3372
2018-01-07T11:45:58.974Z,3376
2018-01-07T11:47:21.002Z,3376
2018-01-07T11:48:42.358Z,3376
2018-01-07T11:50:04.282Z,3372
2018-01-07T11:51:26.171Z,3376
2018-01-07T11:52:48.126Z,3376
2018-01-07T11:54:10.260Z,3372
2018-01-07T11:55:32.393Z,3372
2018-01-07T11:56:54.305Z,3372
2018-01-07T11:58:16.202Z,3372
2018-01-07T11:59:38.192Z,3368
2018-01-07T12:00:59.798Z,3368
2018-01-07T12:02:21.816Z,3368
2018-01-07T12:03:43.435Z,3364
2018-01-07T12:05:05.609Z,3364
2018-01-07T12:06:27.246Z,3364
2018-01-07T12:07:49.156Z,3364
2018-01-07T12:09:11.343Z,3360
2018-01-07T12:10:33.542Z,3360
2018-01-07T12:11:55.275Z,3360
2018-01-07T12:13:17.683Z,3352
2018-01-07T12:14:39.590Z,3352
2018-01-07T12:16:01.671Z,3352
2018-01-07T12:17:23.429Z,3348
2018-01-07T12:18:45.090Z,3348
2018-01-07T12:20:07.337Z,3344
2018-01-07T12:21:29.220Z,3344
2018-01-07T12:22:51.090Z,3344
2018-01-07T12:24:12.707Z,3340
2018-01-07T12:25:34.377Z,3340
2018-01-07T12:26:56.267Z,3336
2018-01-07T12:28:18.292Z,3332
2018-01-07T12:29:39.958Z,3324
2018-01-07T12:31:02.138Z,3324
2018-01-07T12:32:24.038Z,3320
2018-01-07T12:33:46.131Z,3312
2018-01-07T12:35:08.277Z,3308
2018-01-07T12:36:30.217Z,3300
2018-01-07T12:37:52.256Z,3296
2018-01-07T12:39:14.530Z,3288
2018-01-07T12:40:36.906Z,3284
2018-01-07T12:41:58.532Z,3276
2018-01-07T12:43:20.662Z,3268
2018-01-07T12:44:42.392Z,3264
2018-01-07T12:46:03.766Z,3260
2018-01-07T12:47:25.997Z,3252
2018-01-07T12:48:48.012Z,3240
2018-01-07T12:50:09.910Z,3236
2018-01-07T12:51:32.148Z,3228
2018-01-07T12:52:54.027Z,3220
2018-01-07T12:54:16.022Z,3212
2018-01-07T12:55:37.932Z,3204
2018-01-07T12:56:59.848Z,3192
2018-01-07T12:58:21.474Z,3184
2018-01-07T12:59:43.333Z,3176
2018-01-07T13:01:05.313Z,3168
2018-01-07T13:02:27.673Z,3156
2018-01-07T13:03:49.803Z,3144
2018-01-07T13:05:11.402Z,3132
2018-01-07T13:06:33.654Z,3120
2018-01-07T13:07:55.842Z,3112
2018-01-07T13:09:18.123Z,3096
2018-01-07T13:10:40.279Z,3084
2018-01-07T13:12:02.418Z,3068
2018-01-07T13:13:24.358Z,3056
2018-01-07T13:14:46.403Z,3044
2018-01-07T13:16:08.422Z,3032
2018-01-07T13:17:30.766Z,3016
2018-01-07T13:18:52.744Z,3000
2018-01-07T13:20:14.631Z,2988
2018-01-07T13:21:35.991Z,2976
2018-01-07T13:22:57.940Z,2960
2018-01-07T13:24:20.203Z,2948
2018-01-07T13:25:42.149Z,2936
2018-01-07T13:27:04.132Z,2920
2018-01-07T13:28:25.493Z,2904
2018-01-07T13:29:47.413Z,2892
2018-01-07T13:31:09.591Z,2880
2018-01-07T13:32:31.251Z,2864
2018-01-07T13:33:53.572Z,2848
2018-01-07T13:35:15.221Z,2832
2018-01-07T13:36:36.878Z,2820
2018-01-07T13:37:59.021Z,2804
2018-01-07T13:39:20.732Z,2788
2018-01-07T13:40:42.871Z,2772
2018-01-07T13:42:05.116Z,2756
2018-01-07T13:43:26.989Z,2740
2018-01-07T13:44:48.890Z,2724
2018-01-07T13:46:11.040Z,2708
2018-01-07T13:47:33.207Z,2688
2018-01-07T13:48:54.812Z,2668
2018-01-07T13:50:16.732Z,2652
2018-01-07T13:51:38.894Z,2636
2018-01-07T13:53:01.039Z,2616
2018-01-07T13:54:22.905Z,2600
2018-01-07T13:55:45.309Z,2580
2018-01-07T13:57:07.448Z,2560
2018-01-07T13:58:29.333Z,2540
2018-01-07T13:59:50.975Z,2516
2018-01-07T14:01:12.870Z,2496
2018-01-07T14:02:34.513Z,2476
2018-01-07T14:03:56.138Z,2460
2018-01-07T14:05:18.278Z,2436
2018-01-07T14:06:40.491Z,2408
2018-01-07T14:08:02.664Z,2388
2018-01-07T14:09:24.840Z,2360
2018-01-07T14:10:46.452Z,2340
2018-01-07T14:12:08.333Z,2312
2018-01-07T14:13:30.520Z,2284
2018-01-07T14:14:52.502Z,2256
2018-01-07T14:16:14.202Z,2232
2018-01-07T14:17:36.403Z,2208
2018-01-07T14:18:58.562Z,2180
2018-01-07T14:20:20.474Z,2148
2018-01-07T14:21:42.769Z,2120
2018-01-07T14:23:05.162Z,2088
2018-01-07T14:24:27.016Z,2056
2018-01-07T14:25:48.895Z,2028
2018-01-07T14:27:11.061Z,1996
2018-01-07T14:28:33.361Z,1964
2018-01-07T14:29:55.523Z,1928
2018-01-07T14:31:17.762Z,1896
2018-01-07T14:32:39.396Z,1860
2018-01-07T14:34:01.297Z,1828
2018-01-07T14:35:23.189Z,1788
2018-01-07T14:36:44.808Z,1752
2018-01-07T14:38:07.023Z,1716
2018-01-07T14:39:29.194Z,1676
2018-01-07T14:40:51.376Z,1636
2018-01-07T14:42:13.402Z,1596
2018-01-07T14:43:35.552Z,1556
2018-01-07T14:44:57.810Z,1512
2018-01-07T14:46:19.445Z,1472
2018-01-07T14:47:41.511Z,1428
2018-01-07T14:49:03.250Z,1388
2018-01-07T14:50:25.478Z,1348
2018-01-07T14:51:47.109Z,1300
2018-01-07T14:53:09.266Z,1256
2018-01-07T14:54:31.205Z,1212
2018-01-07T14:55:53.053Z,1164
2018-01-07T14:57:14.746Z,1124
2018-01-07T14:58:37.007Z,1072
2018-01-07T14:59:58.956Z,1028
2018-01-07T15:01:20.662Z,984
2018-01-07T15:02:42.852Z,936
2018-01-07T15:04:04.985Z,888
2018-01-07T15:05:26.596Z,840
2018-01-07T15:06:48.482Z,796
2018-01-07T15:08:10.164Z,752
2018-01-07T15:09:32.314Z,704
2018-01-07T15:10:54.463Z,660
2018-01-07T15:12:16.440Z,616
2018-01-07T15:13:38.621Z,572
2018-01-07T15:15:00.527Z,536
2018-01-07T15:16:22.145Z,492
2018-01-07T15:17:44.142Z,452
2018-01-07T15:19:06.259Z,416
2018-01-07T15:20:28.172Z,376
2018-01-07T15:21:50.041Z,344
2018-01-07T15:23:12.196Z,308
2018-01-07T15:24:34.053Z,276
2018-01-07T15:25:55.949Z,248
2018-01-07T15:27:17.874Z,220
2018-01-07T15:28:40.051Z,196
2018-01-07T15:30:02.121Z,172
2018-01-07T15:31:24.322Z,152
2018-01-07T15:32:46.583Z,128
2018-01-07T15:34:08.813Z,112
2018-01-07T15:35:30.760Z,92
2018-01-07T15:36:52.472Z,80
2018-01-07T15:38:14.735Z,68
2018-01-07T15:39:36.593Z,56
2018-01-07T15:40:58.373Z,48
2018-01-07T15:42:20.637Z,36
2018-01-07T15:43:42.971Z,32
2018-01-07T15:45:04.892Z,28
2018-01-07T15:46:26.851Z,24
2018-01-07T15:47:48.937Z,16
2018-01-07T15:49:11.112Z,16
2018-01-07T15:50:33.474Z,12
2018-01-07T15:51:55.672Z,12
2018-01-07T15:53:17.869Z,8
2018-01-07T15:54:40.127Z,8
2018-01-07T15:56:02.350Z,4
2018-01-07T15:57:24.656Z,4
2018-01-07T15:58:46.832Z,4
2018-01-07T16:00:09.177Z,0
2018-01-07T16:01:30.972Z,4
2018-01-07T16:02:53.161Z,4
2018-01-07T16:04:14.835Z,0
2018-01-07T16:05:37.104Z,0
2018-01-07T16:06:59.302Z,0
2018-01-07T16:08:21.194Z,0
2018-01-07T16:09:43.425Z,0
2018-01-07T16:11:05.198Z,0
2018-01-07T16:12:27.119Z,0
2018-01-07T16:13:49.318Z,0
2018-01-07T16:15:11.009Z,0
2018-01-07T16:16:32.907Z,0
2018-01-07T16:17:54.909Z,0
2018-01-07T16:19:17.090Z,0
2018-01-07T16:20:39.239Z,0
2018-01-07T16:22:01.565Z,0
2018-01-07T16:23:23.453Z,0
2018-01-07T16:24:45.079Z,0
2018-01-07T16:26:06.967Z,0
2018-01-07T16:27:29.161Z,0
2018-01-07T16:28:51.129Z,0
2018-01-07T16:30:12.760Z,0
2018-01-07T16:31:34.942Z,0
2018-01-07T16:32:57.092Z,0
2018-01-07T16:34:18.759Z,0
2018-01-07T16:35:40.459Z,0
2018-01-07T16:37:02.687Z,0
2018-01-07T16:38:24.852Z,0
2018-01-07T16:39:47.254Z,0
2018-01-07T16:41:09.447Z,0
2018-01-07T16:42:31.374Z,0
2018-01-07T16:43:53.272Z,0
2018-01-07T16:45:15.161Z,0
2018-01-07T16:46:37.070Z,0
2018-01-07T16:47:59.324Z,0
2018-01-07T16:49:21.190Z,0
2018-01-07T16:50:43.321Z,0
2018-01-07T16:52:05.276Z,0
2018-01-07T16:53:27.463Z,0
2018-01-07T16:54:49.654Z,0
2018-01-07T16:56:11.577Z,0
2018-01-07T16:57:33.752Z,0
2018-01-07T16:58:55.889Z,0
2018-01-07T17:00:18.054Z,0
2018-01-07T17:01:40.507Z,0
2018-01-07T17:03:02.410Z,0
2018-01-07T17:04:24.663Z,0
2018-01-07T17:05:46.563Z,0
2018-01-07T17:07:08.795Z,0
2018-01-07T17:08:30.759Z,0
2018-01-07T17:09:53.009Z,0
2018-01-07T17:11:15.245Z,0
2018-01-07T17:12:37.405Z,0
2018-01-07T17:13:59.682Z,0
2018-01-07T17:15:22.003Z,0
2018-01-07T17:16:44.137Z,0
2018-01-07T17:18:06.530Z,0
2018-01-07T17:19:28.751Z,0
2018-01-07T17:20:50.787Z,0
2018-01-07T17:22:12.699Z,0
2018-01-07T17:23:34.897Z,0
2018-01-07T17:24:57.112Z,0
2018-01-07T17:26:19.073Z,0
2018-01-07T17:27:41.346Z,0
2018-01-07T17:29:03.345Z,0
2018-01-07T17:30:25.264Z,0
2018-01-07T17:31:47.198Z,0
2018-01-07T17:33:09.108Z,0
2018-01-07T17:34:31.397Z,0
2018-01-07T17:35:53.553Z,0
2018-01-07T17:37:15.698Z,0
2018-01-07T17:38:37.600Z,0
2018-01-07T17:39:59.825Z,0
2018-01-07T17:41:22.003Z,0
2018-01-07T17:42:43.943Z,0
2018-01-07T17:44:05.919Z,0
2018-01-07T17:45:27.857Z,0
2018-01-07T17:46:49.787Z,0
2018-01-07T17:48:11.723Z,0
2018-01-07T17:49:33.625Z,0
2018-01-07T17:50:55.765Z,0
2018-01-07T17:52:17.662Z,0
2018-01-07T17:53:39.853Z,0
2018-01-07T17:55:01.734Z,0
2018-01-07T17:56:24.157Z,0
2018-01-07T17:57:45.804Z,0
2018-01-07T17:59:07.691Z,0
2018-01-07T18:00:29.056Z,0
2018-01-07T18:01:51.192Z,0
2018-01-07T18:03:13.464Z,0
2018-01-07T18:04:35.652Z,0
2018-01-07T18:05:57.875Z,0
2018-01-07T18:07:20.114Z,0
2018-01-07T18:08:42.179Z,0
2018-01-07T18:10:04.393Z,0
2018-01-07T18:11:26.644Z,0
2018-01-07T18:12:48.853Z,0
2018-01-07T18:14:10.894Z,0
2018-01-07T18:15:32.505Z,0
2018-01-07T18:16:53.854Z,0
2018-01-07T18:18:15.897Z,0
2018-01-07T18:19:37.541Z,0
2018-01-07T18:20:59.422Z,0
2018-01-07T18:22:21.353Z,0
2018-01-07T18:23:43.813Z,0
2018-01-07T18:25:05.982Z,0
2018-01-07T18:26:28.293Z,0
2018-01-07T18:27:50.585Z,0
2018-01-07T18:29:12.558Z,0
2018-01-07T18:30:34.438Z,0
2018-01-07T18:31:56.679Z,0
2018-01-07T18:33:18.875Z,0
2018-01-07T18:34:40.884Z,0
2018-01-07T18:36:03.062Z,0
2018-01-07T18:37:25.195Z,0
2018-01-07T18:38:47.121Z,0
2018-01-07T18:40:09.352Z,0
2018-01-07T18:41:31.245Z,16
2018-01-07T18:42:53.571Z,16
2018-01-07T18:44:15.781Z,16
2018-01-07T18:45:37.634Z,16
2018-01-07T18:46:59.988Z,16
2018-01-07T18:48:22.214Z,16
2018-01-07T18:49:44.383Z,16
2018-01-07T18:51:06.614Z,0
2018-01-07T18:52:28.535Z,0
2018-01-07T18:53:50.488Z,0
2018-01-07T18:55:12.471Z,0
2018-01-07T18:56:34.669Z,0
2018-01-07T18:57:56.924Z,0
2018-01-07T18:59:19.264Z,0
2018-01-07T19:00:41.232Z,0
2018-01-07T19:02:03.608Z,0
2018-01-07T19:03:25.323Z,0
2018-01-07T19:04:47.286Z,0
2018-01-07T19:06:09.393Z,0
2018-01-07T19:07:31.886Z,0
2018-01-07T19:08:54.113Z,0
2018-01-07T19:10:16.309Z,0
2018-01-07T19:11:38.525Z,0
2018-01-07T19:13:00.473Z,0
2018-01-07T19:14:22.668Z,0
2018-01-07T19:15:44.600Z,0
2018-01-07T19:17:06.493Z,0
2018-01-07T19:18:28.654Z,0